Time;durP1;ratioP1;P1;durP2;ratioP2;P2;SDS_P1;SDS_P2;PMS_P1;PMS_P2;Temp;Humidity;BMP_temperature;BMP_pressure;BME280_temperature;BME280_humidity;BME280_pressure;Samples;Min_cycle;Max_cycle;Signal;HPM_P1;HPM_P2
2021/08/29 00:00:34;;;;;;;;;;;;;;;;;;4962005;28;19930;-92
2021/08/29 00:03:03;;;;;;;;;;;;;;;;;;4948801;28;20424;-89
2021/08/29 00:05:31;;;;;;;;;;;;;;;;;;4975933;28;19933;-90
2021/08/29 00:07:59;;;;;;;;;;;;;;;;;;4956816;28;20409;-88
2021/08/29 00:10:27;;;;;;;;;;;;;;;;;;4959927;28;20469;-88
2021/08/29 00:12:57;;;;;;;;;;;;;;;;;;4961920;28;20302;-90
2021/08/29 00:15:25;;;;;;;;;;;;;;;;;;4961528;28;19933;-89
2021/08/29 00:17:55;;;;;;;;;;;;;;;;;;4962193;28;19926;-88
2021/08/29 00:20:23;;;;;;;;;;;;;;;;;;4961148;28;19933;-90
2021/08/29 00:22:52;;;;;;;;;;;;;;;;;;4961613;28;19925;-90
2021/08/29 00:25:20;;;;;;;;;;;;;;;;;;4961351;28;19932;-88
2021/08/29 00:27:55;;;;;;;;;;;;;;;;;;4957844;28;19926;-90
2021/08/29 00:30:25;;;;;;;;;;;;;;;;;;4958546;28;19933;-90
2021/08/29 00:32:53;;;;;;;;;;;;;;;;;;4958320;28;20390;-89
2021/08/29 00:35:21;;;;;;;;;;;;;;;;;;4958135;28;19933;-90
2021/08/29 00:37:50;;;;;;;;;;;;;;;;;;4957786;28;19926;-90
2021/08/29 00:40:19;;;;;;;;;;;;;;;;;;4941793;28;19930;-88
2021/08/29 00:42:47;;;;;;;;;;;;;;;;;;4958027;28;20406;-89
2021/08/29 00:45:17;;;;;;;;;;;;;;;;;;4943376;28;19933;-89
2021/08/29 00:47:47;;;;;;;;;;;;;;;;;;4957411;28;19945;-90
2021/08/29 00:50:17;;;;;;;;;;;;;;;;;;4957145;28;20310;-89
2021/08/29 00:52:46;;;;;;;;;;;;;;;;;;4958422;28;19926;-88
2021/08/29 00:55:14;;;;;;;;;;;;;;;;;;4948978;28;19925;-88
2021/08/29 00:57:47;;;;;;;;;;;;;;;;;;4953602;28;19926;-88
2021/08/29 01:00:19;;;;;;;;;;;;;;;;;;4956775;28;19937;-89
2021/08/29 01:02:55;;;;;;;;;;;;;;;;;;4957510;28;19933;-87
2021/08/29 01:05:24;;;;;;;;;;;;;;;;;;4958746;28;20394;-87
2021/08/29 01:08:13;;;;;;;;;;;;;;;;;;4974336;28;20323;-88
2021/08/29 01:10:43;;;;;;;;;;;;;;;;;;4952113;28;19925;-90
2021/08/29 01:13:13;;;;;;;;;;;;;;;;;;4960036;28;19926;-89
2021/08/29 01:15:41;;;;;;;;;;;;;;;;;;4960140;28;19934;-90
2021/08/29 01:18:11;;;;;;;;;;;;;;;;;;4945057;28;19926;-89
2021/08/29 01:20:52;;;;;;;;;;;;;;;;;;4952013;28;19937;-89
2021/08/29 01:23:22;;;;;;;;;;;;;;;;;;4960401;28;19937;-90
2021/08/29 01:25:53;;;;;;;;;;;;;;;;;;4960613;28;19925;-90
2021/08/29 01:28:24;;;;;;;;;;;;;;;;;;4960960;28;19933;-90
2021/08/29 01:30:54;;;;;;;;;;;;;;;;;;4961099;28;20318;-89
2021/08/29 01:33:31;;;;;;;;;;;;;;;;;;4960912;28;20313;-89
2021/08/29 01:36:12;;;;;;;;;;;;;;;;;;4951399;28;19926;-91
2021/08/29 01:38:44;;;;;;;;;;;;;;;;;;4953886;28;20333;-90
2021/08/29 01:41:13;;;;;;;;;;;;;;;;;;4957605;28;19926;-91
2021/08/29 01:43:41;;;;;;;;;;;;;;;;;;4954510;28;19930;-91
2021/08/29 01:46:11;;;;;;;;;;;;;;;;;;4956081;28;19952;-91
2021/08/29 01:48:52;;;;;;;;;;;;;;;;;;4947897;28;19930;-92
2021/08/29 01:51:22;;;;;;;;;;;;;;;;;;4953101;28;19926;-90
2021/08/29 01:53:53;;;;;;;;;;;;;;;;;;4949652;28;19926;-91
2021/08/29 01:56:26;;;;;;;;;;;;;;;;;;4960208;28;19926;-91
2021/08/29 01:59:03;;;;;;;;;;;;;;;;;;4954549;28;19930;-91
2021/08/29 02:01:38;;;;;;;;;;;;;;;;;;4943113;28;19941;-90
2021/08/29 02:04:07;;;;;;;;;;;;;;;;;;4945673;28;19926;-91
2021/08/29 02:06:36;;;;;;;;;;;;;;;;;;4947907;28;19926;-92
2021/08/29 02:09:07;;;;;;;;;;;;;;;;;;4947407;28;19933;-91
2021/08/29 02:11:40;;;;;;;;;;;;;;;;;;4950408;28;19941;-92
2021/08/29 02:14:10;;;;;;;;;;;;;;;;;;4953000;28;19933;-92
2021/08/29 02:16:41;;;;;;;;;;;;;;;;;;4948486;28;19934;-91
2021/08/29 02:19:11;;;;;;;;;;;;;;;;;;4963384;28;19930;-92
2021/08/29 02:21:39;;;;;;;;;;;;;;;;;;4953939;28;19950;-91
2021/08/29 02:24:09;;;;;;;;;;;;;;;;;;4950654;28;20412;-91
2021/08/29 02:26:38;;;;;;;;;;;;;;;;;;4961781;28;19926;-91
2021/08/29 02:29:15;;;;;;;;;;;;;;;;;;4965412;28;19926;-91
2021/08/29 02:31:45;;;;;;;;;;;;;;;;;;4958883;28;19926;-91
2021/08/29 02:34:13;;;;;;;;;;;;;;;;;;4953050;28;19933;-91
2021/08/29 02:36:43;;;;;;;;;;;;;;;;;;4958886;28;19926;-90
2021/08/29 02:39:13;;;;;;;;;;;;;;;;;;4960090;28;20278;-91
2021/08/29 02:41:42;;;;;;;;;;;;;;;;;;4943019;28;19937;-91
2021/08/29 02:44:10;;;;;;;;;;;;;;;;;;4962082;28;19938;-92
2021/08/29 02:46:38;;;;;;;;;;;;;;;;;;4945725;28;19934;-91
2021/08/29 02:49:08;;;;;;;;;;;;;;;;;;4947747;28;20374;-91
2021/08/29 02:51:37;;;;;;;;;;;;;;;;;;4950536;28;19926;-91
2021/08/29 02:54:05;;;;;;;;;;;;;;;;;;4951541;28;19925;-93
2021/08/29 02:56:34;;;;;;;;;;;;;;;;;;4947986;28;19931;-91
2021/08/29 02:59:03;;;;;;;;;;;;;;;;;;4947938;28;19926;-89
2021/08/29 03:01:35;;;;;;;;;;;;;;;;;;4948777;28;19949;-92
2021/08/29 03:04:17;;;;;;;;;;;;;;;;;;4952233;28;19926;-92
2021/08/29 03:06:46;;;;;;;;;;;;;;;;;;4942320;28;19937;-92
2021/08/29 03:09:14;;;;;;;;;;;;;;;;;;4949374;28;20333;-93
2021/08/29 03:11:46;;;;;;;;;;;;;;;;;;4956273;28;19948;-92
2021/08/29 03:14:33;;;;;;;;;;;;;;;;;;4954976;28;19956;-91
2021/08/29 03:17:02;;;;;;;;;;;;;;;;;;4948499;28;19926;-91
2021/08/29 03:19:45;;;;;;;;;;;;;;;;;;4946522;28;19926;-91
2021/08/29 03:22:24;;;;;;;;;;;;;;;;;;4954156;28;19925;-89
2021/08/29 03:24:55;;;;;;;;;;;;;;;;;;4943453;28;19926;-90
2021/08/29 03:27:24;;;;;;;;;;;;;;;;;;4936067;28;19962;-90
2021/08/29 03:29:52;;;;;;;;;;;;;;;;;;4949368;28;21195;-87
2021/08/29 03:32:21;;;;;;;;;;;;;;;;;;4947786;28;19937;-89
2021/08/29 03:34:52;;;;;;;;;;;;;;;;;;4946040;28;19927;-91
2021/08/29 03:37:20;;;;;;;;;;;;;;;;;;4946368;28;19926;-89
2021/08/29 03:39:48;;;;;;;;;;;;;;;;;;4962256;28;19926;-90
2021/08/29 03:42:16;;;;;;;;;;;;;;;;;;4958594;28;20335;-92
2021/08/29 03:44:46;;;;;;;;;;;;;;;;;;4946028;28;20019;-91
2021/08/29 03:47:15;;;;;;;;;;;;;;;;;;4955332;28;19933;-90
2021/08/29 03:49:44;;;;;;;;;;;;;;;;;;4956757;28;19941;-91
2021/08/29 03:52:19;;;;;;;;;;;;;;;;;;4946486;28;19933;-91
2021/08/29 03:55:08;;;;;;;;;;;;;;;;;;4955522;28;20393;-91
2021/08/29 03:57:38;;;;;;;;;;;;;;;;;;4950768;28;20413;-90
2021/08/29 04:00:07;;;;;;;;;;;;;;;;;;4946318;28;20429;-91
2021/08/29 04:02:53;;;;;;;;;;;;;;;;;;4970338;28;19945;-91
2021/08/29 04:05:47;;;;;;;;;;;;;;;;;;4958342;28;19933;-90
2021/08/29 04:08:16;;;;;;;;;;;;;;;;;;4951947;28;20390;-89
2021/08/29 04:10:45;;;;;;;;;;;;;;;;;;4947214;28;19926;-90
2021/08/29 04:13:13;;;;;;;;;;;;;;;;;;4948921;28;19926;-90
2021/08/29 04:16:02;;;;;;;;;;;;;;;;;;4980428;28;19926;-91
2021/08/29 04:18:32;;;;;;;;;;;;;;;;;;4948010;28;19941;-91
2021/08/29 04:21:01;;;;;;;;;;;;;;;;;;4944869;28;19930;-90
2021/08/29 04:23:31;;;;;;;;;;;;;;;;;;4961266;28;19934;-91
2021/08/29 04:26:00;;;;;;;;;;;;;;;;;;4945037;28;20354;-90
2021/08/29 04:28:29;;;;;;;;;;;;;;;;;;4942701;28;19930;-91
2021/08/29 04:30:58;;;;;;;;;;;;;;;;;;4943147;28;19949;-91
2021/08/29 04:33:27;;;;;;;;;;;;;;;;;;4946563;28;19926;-91
2021/08/29 04:36:20;;;;;;;;;;;;;;;;;;4960094;28;20390;-88
2021/08/29 04:38:50;;;;;;;;;;;;;;;;;;4962142;28;19934;-89
2021/08/29 04:41:18;;;;;;;;;;;;;;;;;;4948906;28;19953;-89
2021/08/29 04:43:46;;;;;;;;;;;;;;;;;;4949208;28;19934;-90
2021/08/29 04:46:15;;;;;;;;;;;;;;;;;;4959208;28;20389;-90
2021/08/29 04:48:45;;;;;;;;;;;;;;;;;;4949774;28;20405;-89
2021/08/29 04:51:16;;;;;;;;;;;;;;;;;;4946028;28;19933;-89
2021/08/29 04:53:45;;;;;;;;;;;;;;;;;;4958929;28;19933;-91
2021/08/29 04:56:15;;;;;;;;;;;;;;;;;;4948480;28;20452;-89
2021/08/29 04:58:43;;;;;;;;;;;;;;;;;;4948860;28;19936;-90
2021/08/29 05:01:11;;;;;;;;;;;;;;;;;;4946989;28;19942;-89
2021/08/29 05:03:41;;;;;;;;;;;;;;;;;;4982567;28;19933;-90
2021/08/29 05:06:09;;;;;;;;;;;;;;;;;;4958285;28;20570;-90
2021/08/29 05:08:37;;;;;;;;;;;;;;;;;;4950743;28;19926;-91
2021/08/29 05:11:06;;;;;;;;;;;;;;;;;;4965609;28;20305;-89
2021/08/29 05:13:38;;;;;;;;;;;;;;;;;;4953613;28;19930;-90
2021/08/29 05:16:07;;;;;;;;;;;;;;;;;;4964131;28;20428;-89
2021/08/29 05:18:36;;;;;;;;;;;;;;;;;;4942887;28;19926;-88
2021/08/29 05:21:20;;;;;;;;;;;;;;;;;;4947328;28;20417;-91
2021/08/29 05:24:07;;;;;;;;;;;;;;;;;;4986481;28;19926;-90
2021/08/29 05:26:49;;;;;;;;;;;;;;;;;;4945013;28;19926;-90
2021/08/29 05:29:20;;;;;;;;;;;;;;;;;;4952351;28;19926;-90
2021/08/29 05:31:49;;;;;;;;;;;;;;;;;;4952229;28;19926;-88
2021/08/29 05:34:25;;;;;;;;;;;;;;;;;;4948753;28;20341;-89
2021/08/29 05:36:53;;;;;;;;;;;;;;;;;;4945784;28;19930;-91
2021/08/29 05:39:23;;;;;;;;;;;;;;;;;;4947870;28;19926;-91
2021/08/29 05:41:51;;;;;;;;;;;;;;;;;;4945255;28;19941;-90
2021/08/29 05:44:38;;;;;;;;;;;;;;;;;;4948761;28;20009;-91
2021/08/29 05:47:06;;;;;;;;;;;;;;;;;;4947974;28;19926;-91
2021/08/29 05:49:38;;;;;;;;;;;;;;;;;;4957828;28;19926;-90
2021/08/29 05:52:07;;;;;;;;;;;;;;;;;;4945633;28;19926;-90
2021/08/29 05:54:36;;;;;;;;;;;;;;;;;;4941206;28;19965;-91
2021/08/29 05:57:05;;;;;;;;;;;;;;;;;;4935727;28;19936;-91
2021/08/29 05:59:34;;;;;;;;;;;;;;;;;;4943265;28;19937;-91
2021/08/29 06:02:04;;;;;;;;;;;;;;;;;;4940595;28;20429;-91
2021/08/29 06:04:33;;;;;;;;;;;;;;;;;;4945663;28;19925;-91
2021/08/29 06:07:13;;;;;;;;;;;;;;;;;;4961970;28;19926;-90
2021/08/29 06:09:48;;;;;;;;;;;;;;;;;;4958606;28;19933;-91
2021/08/29 06:12:18;;;;;;;;;;;;;;;;;;4949583;28;19930;-90
2021/08/29 06:14:46;;;;;;;;;;;;;;;;;;4969592;28;19926;-91
2021/08/29 06:17:16;;;;;;;;;;;;;;;;;;4962465;28;20317;-91
2021/08/29 06:19:44;;;;;;;;;;;;;;;;;;4946147;28;19930;-90
2021/08/29 06:22:13;;;;;;;;;;;;;;;;;;4947328;28;19933;-90
2021/08/29 06:25:01;;;;;;;;;;;;;;;;;;4958182;28;19934;-91
2021/08/29 06:28:02;;;;;;;;;;;;;;;;;;4903665;28;19932;-91
2021/08/29 06:30:48;;;;;;;;;;;;;;;;;;4959844;28;20408;-91
2021/08/29 06:33:38;;;;;;;;;;;;;;;;;;4965007;28;19926;-91
2021/08/29 06:36:13;;;;;;;;;;;;;;;;;;4951666;28;19925;-90
2021/08/29 06:38:42;;;;;;;;;;;;;;;;;;4948330;28;19925;-92
2021/08/29 06:41:10;;;;;;;;;;;;;;;;;;4950490;28;19949;-89
2021/08/29 06:43:38;;;;;;;;;;;;;;;;;;4951481;28;19933;-90
2021/08/29 06:46:42;;;;;;;;;;;;;;;;;;4960329;28;20326;-89
2021/08/29 06:49:30;;;;;;;;;;;;;;;;;;4964035;28;19927;-88
2021/08/29 06:52:17;;;;;;;;;;;;;;;;;;4977908;28;19929;-89
2021/08/29 06:55:05;;;;;;;;;;;;;;;;;;4963344;28;19937;-90
2021/08/29 06:58:05;;;;;;;;;;;;;;;;;;4922949;28;19934;-88
2021/08/29 07:00:36;;;;;;;;;;;;;;;;;;4963380;28;19926;-90
2021/08/29 07:03:08;;;;;;;;;;;;;;;;;;4950832;28;19934;-90
2021/08/29 07:05:38;;;;;;;;;;;;;;;;;;4957309;28;21371;-90
2021/08/29 07:08:40;;;;;;;;;;;;;;;;;;4958064;28;20390;-91
2021/08/29 07:11:09;;;;;;;;;;;;;;;;;;4960264;28;19930;-90
2021/08/29 07:13:40;;;;;;;;;;;;;;;;;;4972848;28;19957;-91
2021/08/29 07:16:08;;;;;;;;;;;;;;;;;;4956993;28;19925;-91
2021/08/29 07:18:36;;;;;;;;;;;;;;;;;;4973346;28;19929;-91
2021/08/29 07:21:26;;;;;;;;;;;;;;;;;;4953738;28;20326;-91
2021/08/29 07:23:57;;;;;;;;;;;;;;;;;;4958613;28;20390;-91
2021/08/29 07:26:57;;;;;;;;;;;;;;;;;;4971316;28;19930;-91
2021/08/29 07:29:44;;;;;;;;;;;;;;;;;;4978440;28;19930;-92
2021/08/29 07:32:31;;;;;;;;;;;;;;;;;;4971772;28;19937;-92
2021/08/29 07:34:59;;;;;;;;;;;;;;;;;;4956841;28;20319;-92
2021/08/29 07:37:32;;;;;;;;;;;;;;;;;;4977334;28;19925;-91
2021/08/29 07:40:01;;;;;;;;;;;;;;;;;;4975241;28;19933;-91
2021/08/29 07:42:32;;;;;;;;;;;;;;;;;;4953369;28;19926;-90
2021/08/29 07:45:00;;;;;;;;;;;;;;;;;;4954662;28;19941;-90
2021/08/29 07:47:31;;;;;;;;;;;;;;;;;;4955124;28;19926;-90
2021/08/29 07:50:04;;;;;;;;;;;;;;;;;;4971904;28;19933;-90
2021/08/29 07:52:36;;;;;;;;;;;;;;;;;;4961345;28;19926;-90
2021/08/29 07:55:25;;;;;;;;;;;;;;;;;;4941558;28;19938;-92
2021/08/29 07:58:19;;;;;;;;;;;;;;;;;;4949076;28;19927;-90
2021/08/29 08:00:49;;;;;;;;;;;;;;;;;;4950651;28;19929;-90
2021/08/29 08:03:37;;;;;;;;;;;;;;;;;;4948056;28;19941;-90
2021/08/29 08:06:24;;;;;;;;;;;;;;;;;;4963680;28;19933;-91
2021/08/29 08:08:55;;;;;;;;;;;;;;;;;;4981055;28;19937;-92
2021/08/29 08:11:42;;;;;;;;;;;;;;;;;;4960298;28;19930;-91
2021/08/29 08:14:16;;;;;;;;;;;;;;;;;;4948091;28;19926;-90
2021/08/29 08:16:48;;;;;;;;;;;;;;;;;;4967288;28;20279;-90
2021/08/29 08:19:24;;;;;;;;;;;;;;;;;;4965581;28;19925;-90
2021/08/29 08:21:54;;;;;;;;;;;;;;;;;;4968132;28;19926;-91
2021/08/29 08:24:35;;;;;;;;;;;;;;;;;;4949478;28;19930;-90
2021/08/29 08:27:22;;;;;;;;;;;;;;;;;;4962664;28;19937;-89
2021/08/29 08:30:10;;;;;;;;;;;;;;;;;;4969248;28;19926;-90
2021/08/29 08:32:56;;;;;;;;;;;;;;;;;;4961441;28;19934;-90
2021/08/29 08:35:54;;;;;;;;;;;;;;;;;;4961140;28;20333;-90
2021/08/29 08:38:38;;;;;;;;;;;;;;;;;;4969671;28;19946;-90
2021/08/29 08:41:31;;;;;;;;;;;;;;;;;;4957039;28;20306;-90
2021/08/29 08:44:18;;;;;;;;;;;;;;;;;;4964234;28;19938;-89
2021/08/29 08:47:06;;;;;;;;;;;;;;;;;;4979015;28;19933;-90
2021/08/29 08:49:54;;;;;;;;;;;;;;;;;;4981508;28;19926;-91
2021/08/29 08:52:41;;;;;;;;;;;;;;;;;;4963459;28;19941;-90
2021/08/29 08:55:27;;;;;;;;;;;;;;;;;;4966618;28;19930;-91
2021/08/29 08:58:26;;;;;;;;;;;;;;;;;;4915347;28;19928;-90
2021/08/29 09:01:20;;;;;;;;;;;;;;;;;;4944979;28;20310;-90
2021/08/29 09:04:05;;;;;;;;;;;;;;;;;;4961593;28;19930;-90
2021/08/29 09:06:39;;;;;;;;;;;;;;;;;;4945521;28;19933;-90
2021/08/29 09:09:09;;;;;;;;;;;;;;;;;;4960630;28;20310;-90
2021/08/29 09:11:41;;;;;;;;;;;;;;;;;;4949272;28;19956;-91
2021/08/29 09:14:11;;;;;;;;;;;;;;;;;;4951921;28;20406;-89
2021/08/29 09:16:39;;;;;;;;;;;;;;;;;;4960134;28;19941;-93
2021/08/29 09:19:09;;;;;;;;;;;;;;;;;;4950180;28;19930;-89
2021/08/29 09:21:44;;;;;;;;;;;;;;;;;;4960114;28;20293;-91
2021/08/29 09:24:20;;;;;;;;;;;;;;;;;;4950483;28;19936;-91
2021/08/29 09:27:03;;;;;;;;;;;;;;;;;;4943116;28;19933;-91
2021/08/29 09:29:48;;;;;;;;;;;;;;;;;;4951978;28;21430;-91
2021/08/29 09:32:18;;;;;;;;;;;;;;;;;;4951121;28;19945;-90
2021/08/29 09:34:58;;;;;;;;;;;;;;;;;;4945558;28;19936;-91
2021/08/29 09:37:36;;;;;;;;;;;;;;;;;;4948327;28;19926;-91
2021/08/29 09:40:22;;;;;;;;;;;;;;;;;;4950155;28;19926;-92
2021/08/29 09:43:13;;;;;;;;;;;;;;;;;;4941691;28;19930;-91
2021/08/29 09:45:46;;;;;;;;;;;;;;;;;;4951030;28;19932;-93
2021/08/29 09:48:46;;;;;;;;;;;;;;;;;;4939765;28;19926;-90
2021/08/29 09:51:24;;;;;;;;;;;;;;;;;;4945570;28;19925;-92
2021/08/29 09:54:05;;;;;;;;;;;;;;;;;;4943360;28;19930;-92
2021/08/29 09:57:07;;;;;;;;;;;;;;;;;;4952447;28;19932;-92
2021/08/29 10:00:07;;;;;;;;;;;;;;;;;;4942380;28;19930;-92
2021/08/29 10:02:45;;;;;;;;;;;;;;;;;;4951189;28;20508;-91
2021/08/29 10:05:15;;;;;;;;;;;;;;;;;;4961468;28;20313;-91
2021/08/29 10:07:57;;;;;;;;;;;;;;;;;;4944926;28;19937;-92
2021/08/29 10:10:27;;;;;;;;;;;;;;;;;;4979785;28;19934;-91
2021/08/29 10:12:56;;;;;;;;;;;;;;;;;;4956303;28;19934;-91
2021/08/29 10:15:25;;;;;;;;;;;;;;;;;;4963295;28;19934;-90
2021/08/29 10:18:14;;;;;;;;;;;;;;;;;;4961857;28;19929;-93
2021/08/29 10:21:01;;;;;;;;;;;;;;;;;;4963413;28;19925;-93
2021/08/29 10:23:38;;;;;;;;;;;;;;;;;;4960800;28;19933;-92
2021/08/29 10:26:08;;;;;;;;;;;;;;;;;;4944369;28;19927;-88
2021/08/29 10:28:57;;;;;;;;;;;;;;;;;;4957548;28;20367;-89
2021/08/29 10:31:47;;;;;;;;;;;;;;;;;;4972654;28;19926;-90
2021/08/29 10:34:24;;;;;;;;;;;;;;;;;;4960141;28;19934;-89
2021/08/29 10:36:54;;;;;;;;;;;;;;;;;;4958951;28;19933;-90
2021/08/29 10:39:43;;;;;;;;;;;;;;;;;;4972572;28;19926;-90
2021/08/29 10:46:14;;;;;;;;;;;;;;;;;;4969896;28;20338;-90
2021/08/29 10:49:01;;;;;;;;;;;;;;;;;;4972233;28;19933;-91
2021/08/29 10:51:46;;;;;;;;;;;;;;;;;;4972967;28;19927;-89
2021/08/29 10:54:15;;;;;;;;;;;;;;;;;;4956620;28;19926;-91
2021/08/29 10:56:48;;;;;;;;;;;;;;;;;;4955793;28;19933;-89
2021/08/29 10:59:22;;;;;;;;;;;;;;;;;;4957034;28;19933;-88
2021/08/29 11:01:54;;;;;;;;;;;;;;;;;;4956689;28;19926;-90
2021/08/29 11:04:47;;;;;;;;;;;;;;;;;;4955475;28;19930;-88
2021/08/29 11:07:40;;;;;;;;;;;;;;;;;;4954188;29;19934;-90
2021/08/29 11:13:34;;;;;;;;;;;;;;;;;;4937947;29;19933;-91
2021/08/29 11:16:15;;;;;;;;;;;;;;;;;;4953298;29;19927;-89
2021/08/29 11:19:13;;;;;;;;;;;;;;;;;;4953328;29;19934;-90
2021/08/29 11:22:15;;;;;;;;;;;;;;;;;;4953002;29;20418;-86
2021/08/29 11:25:17;;;;;;;;;;;;;;;;;;4953752;29;19933;-89
2021/08/29 11:28:07;;;;;;;;;;;;;;;;;;4937761;29;19926;-88
2021/08/29 11:30:44;;;;;;;;;;;;;;;;;;4962826;28;19926;-87
2021/08/29 11:33:34;;;;;;;;;;;;;;;;;;4952410;29;19926;-87
2021/08/29 11:36:11;;;;;;;;;;;;;;;;;;4941553;29;20371;-88
2021/08/29 11:39:01;;;;;;;;;;;;;;;;;;4956101;28;20398;-90
2021/08/29 11:41:33;;;;;;;;;;;;;;;;;;4954191;28;19927;-89
2021/08/29 11:44:04;;;;;;;;;;;;;;;;;;4950209;28;19927;-91
2021/08/29 11:46:39;;;;;;;;;;;;;;;;;;4962297;28;19941;-89
2021/08/29 11:49:17;;;;;;;;;;;;;;;;;;4954156;28;19933;-91
2021/08/29 11:51:58;;;;;;;;;;;;;;;;;;4951464;28;19933;-88
2021/08/29 11:54:33;;;;;;;;;;;;;;;;;;4949281;28;19992;-88
2021/08/29 11:57:02;;;;;;;;;;;;;;;;;;4955078;28;19926;-88
2021/08/29 11:59:32;;;;;;;;;;;;;;;;;;4951115;28;19937;-90
2021/08/29 12:02:12;;;;;;;;;;;;;;;;;;4950919;28;20946;-88
2021/08/29 12:04:56;;;;;;;;;;;;;;;;;;4964790;28;19937;-88
2021/08/29 12:11:00;;;;;;;;;;;;;;;;;;4953683;28;19930;-88
2021/08/29 12:13:48;;;;;;;;;;;;;;;;;;4963664;28;19926;-88
2021/08/29 12:16:39;;;;;;;;;;;;;;;;;;4934051;28;19927;-88
2021/08/29 12:19:13;;;;;;;;;;;;;;;;;;4949262;28;19933;-87
2021/08/29 12:22:23;;;;;;;;;;;;;;;;;;4915877;29;19950;-89
2021/08/29 12:25:08;;;;;;;;;;;;;;;;;;4947784;28;20531;-87
2021/08/29 12:27:37;;;;;;;;;;;;;;;;;;4949861;28;19930;-89
2021/08/29 12:30:07;;;;;;;;;;;;;;;;;;4942421;28;19926;-88
2021/08/29 12:32:38;;;;;;;;;;;;;;;;;;4951780;28;19927;-91
2021/08/29 12:35:09;;;;;;;;;;;;;;;;;;4926780;29;19926;-89
2021/08/29 12:37:43;;;;;;;;;;;;;;;;;;4944764;28;19926;-92
2021/08/29 12:40:20;;;;;;;;;;;;;;;;;;4974688;28;19948;-92
2021/08/29 12:42:49;;;;;;;;;;;;;;;;;;4951937;28;19926;-94
2021/08/29 12:45:25;;;;;;;;;;;;;;;;;;4947935;28;19926;-91
2021/08/29 12:56:34;;;;;;;;;;;;;;;;;;4978419;23;19933;-83
2021/08/29 13:02:44;;;;;;;;;;;;;;;;;;4957318;28;19937;-84
2021/08/29 13:05:13;;;;;;;;;;;;;;;;;;4961088;28;19926;-84
2021/08/29 13:07:48;;;;;;;;;;;;;;;;;;4926700;28;21257;-80
2021/08/29 13:10:17;;;;;;;;;;;;;;;;;;4941441;28;19927;-88
2021/08/29 13:12:47;;;;;;;;;;;;;;;;;;4945336;28;19941;-85
2021/08/29 13:15:22;;;;;;;;;;;;;;;;;;4957820;28;19931;-84
2021/08/29 13:17:57;;;;;;;;;;;;;;;;;;4969982;28;20311;-82
2021/08/29 13:20:36;;;;;;;;;;;;;;;;;;4941625;28;20309;-84
2021/08/29 13:23:05;;;;;;;;;;;;;;;;;;4924980;28;19927;-83
2021/08/29 13:25:38;;;;;;;;;;;;;;;;;;4968248;28;19942;-82
2021/08/29 13:28:19;;;;;;;;;;;;;;;;;;4940497;28;19937;-83
2021/08/29 13:31:01;;;;;;;;;;;;;;;;;;4951000;28;19931;-83
2021/08/29 13:33:30;;;;;;;;;;;;;;;;;;4938870;28;19927;-84
2021/08/29 13:36:03;;;;;;;;;;;;;;;;;;4942228;28;19933;-83
2021/08/29 13:38:32;;;;;;;;;;;;;;;;;;4959341;28;19926;-83
2021/08/29 13:41:01;;;;;;;;;;;;;;;;;;4967578;28;19927;-85
2021/08/29 13:43:37;;;;;;;;;;;;;;;;;;4928436;28;19938;-83
2021/08/29 13:46:06;;;;;;;;;;;;;;;;;;4943869;28;19930;-84
2021/08/29 13:48:35;;;;;;;;;;;;;;;;;;4927242;28;19926;-80
2021/08/29 13:51:03;;;;;;;;;;;;;;;;;;4939116;28;19933;-82
2021/08/29 13:53:31;;;;;;;;;;;;;;;;;;4929298;28;19936;-81
2021/08/29 13:56:00;;;;;;;;;;;;;;;;;;4956332;28;20438;-82
2021/08/29 13:58:28;;;;;;;;;;;;;;;;;;4932285;28;19937;-83
2021/08/29 14:00:58;;;;;;;;;;;;;;;;;;4933809;23;19934;-85
2021/08/29 14:03:27;;;;;;;;;;;;;;;;;;4901430;28;19927;-83
2021/08/29 14:05:56;;;;;;;;;;;;;;;;;;4915459;28;19934;-86
2021/08/29 14:08:26;;;;;;;;;;;;;;;;;;4908995;28;19927;-84
2021/08/29 14:10:56;;;;;;;;;;;;;;;;;;4916472;28;19930;-81
2021/08/29 14:13:25;;;;;;;;;;;;;;;;;;4914340;28;19934;-82
2021/08/29 14:15:53;;;;;;;;;;;;;;;;;;4895127;28;19931;-85
2021/08/29 14:18:24;;;;;;;;;;;;;;;;;;4919308;28;19938;-86
2021/08/29 14:20:53;;;;;;;;;;;;;;;;;;4905002;28;19935;-83
2021/08/29 14:23:21;;;;;;;;;;;;;;;;;;4919165;29;19926;-83
2021/08/29 14:25:49;;;;;;;;;;;;;;;;;;4904049;29;19927;-85
2021/08/29 14:28:18;;;;;;;;;;;;;;;;;;4905998;29;19927;-85
2021/08/29 14:30:46;;;;;;;;;;;;;;;;;;4922361;28;19938;-82
2021/08/29 14:33:14;;;;;;;;;;;;;;;;;;4902148;28;19926;-82
2021/08/29 14:35:43;;;;;;;;;;;;;;;;;;4907386;28;19942;-87
2021/08/29 14:38:12;;;;;;;;;;;;;;;;;;4905504;29;19938;-84
2021/08/29 14:40:40;;;;;;;;;;;;;;;;;;4936755;28;19926;-82
2021/08/29 14:43:09;;;;;;;;;;;;;;;;;;4898827;28;19950;-81
2021/08/29 14:45:37;;;;;;;;;;;;;;;;;;4900475;28;19935;-83
2021/08/29 14:48:06;;;;;;;;;;;;;;;;;;4916192;29;19927;-83
2021/08/29 14:50:34;;;;;;;;;;;;;;;;;;4915846;29;19927;-80
2021/08/29 14:53:13;;;;;;;;;;;;;;;;;;4917044;28;19927;-81
2021/08/29 14:55:42;;;;;;;;;;;;;;;;;;4902009;28;19934;-83
2021/08/29 14:58:10;;;;;;;;;;;;;;;;;;4905572;29;19926;-81
2021/08/29 15:00:41;;;;;;;;;;;;;;;;;;4904760;28;20004;-82
2021/08/29 15:03:11;;;;;;;;;;;;;;;;;;4906920;29;19938;-83
2021/08/29 15:06:05;;;;;;;;;;;;;;;;;;4901132;28;21023;-82
2021/08/29 15:09:13;;;;;;;;;;;;;;;;;;4926911;28;19927;-83
2021/08/29 15:11:41;;;;;;;;;;;;;;;;;;4932793;28;19931;-83
2021/08/29 15:14:09;;;;;;;;;;;;;;;;;;4935728;28;19930;-83
2021/08/29 15:16:38;;;;;;;;;;;;;;;;;;4902123;29;19938;-82
2021/08/29 15:19:06;;;;;;;;;;;;;;;;;;4908164;29;19942;-83
2021/08/29 15:21:36;;;;;;;;;;;;;;;;;;4902448;28;19934;-81
2021/08/29 15:24:05;;;;;;;;;;;;;;;;;;4918749;28;19949;-86
2021/08/29 15:26:35;;;;;;;;;;;;;;;;;;4901919;28;20313;-82
2021/08/29 15:29:03;;;;;;;;;;;;;;;;;;4929543;29;19934;-82
2021/08/29 15:31:32;;;;;;;;;;;;;;;;;;4907787;28;19926;-84
2021/08/29 15:34:00;;;;;;;;;;;;;;;;;;4911949;29;19949;-81
2021/08/29 15:36:30;;;;;;;;;;;;;;;;;;4917636;29;20298;-79
2021/08/29 15:38:58;;;;;;;;;;;;;;;;;;4895656;28;19927;-83
2021/08/29 15:41:26;;;;;;;;;;;;;;;;;;4918213;28;19938;-80
2021/08/29 15:43:56;;;;;;;;;;;;;;;;;;4901142;28;19934;-86
2021/08/29 15:46:24;;;;;;;;;;;;;;;;;;4926115;29;20153;-83
2021/08/29 15:48:53;;;;;;;;;;;;;;;;;;4905620;28;19927;-82
2021/08/29 15:51:40;;;;;;;;;;;;;;;;;;4920910;29;19934;-81
2021/08/29 15:54:09;;;;;;;;;;;;;;;;;;4914142;28;19926;-87
2021/08/29 15:56:38;;;;;;;;;;;;;;;;;;4903698;28;20278;-83
2021/08/29 15:59:07;;;;;;;;;;;;;;;;;;4900558;29;20166;-84
2021/08/29 16:01:36;;;;;;;;;;;;;;;;;;4903576;29;19927;-82
2021/08/29 16:04:06;;;;;;;;;;;;;;;;;;4937555;28;19934;-82
2021/08/29 16:06:34;;;;;;;;;;;;;;;;;;4905795;29;19942;-84
2021/08/29 16:09:02;;;;;;;;;;;;;;;;;;4900958;28;19937;-84
2021/08/29 16:11:31;;;;;;;;;;;;;;;;;;4908220;28;21757;-85
2021/08/29 16:13:59;;;;;;;;;;;;;;;;;;4908943;29;20013;-86
2021/08/29 16:16:28;;;;;;;;;;;;;;;;;;4906716;29;19930;-85
2021/08/29 16:18:57;;;;;;;;;;;;;;;;;;4917276;28;19942;-84
2021/08/29 16:21:25;;;;;;;;;;;;;;;;;;4901479;29;19941;-87
2021/08/29 16:23:54;;;;;;;;;;;;;;;;;;4933801;28;19927;-86
2021/08/29 16:26:25;;;;;;;;;;;;;;;;;;4918840;29;19926;-82
2021/08/29 16:28:54;;;;;;;;;;;;;;;;;;4915584;29;19926;-87
2021/08/29 16:31:24;;;;;;;;;;;;;;;;;;4914993;28;19927;-90
2021/08/29 16:33:54;;;;;;;;;;;;;;;;;;4916891;28;19927;-84
2021/08/29 16:36:23;;;;;;;;;;;;;;;;;;4916610;29;19943;-83
2021/08/29 16:38:52;;;;;;;;;;;;;;;;;;4903229;29;20420;-80
2021/08/29 16:41:20;;;;;;;;;;;;;;;;;;4899266;28;19953;-85
2021/08/29 16:44:01;;;;;;;;;;;;;;;;;;4902019;29;19941;-88
2021/08/29 16:46:45;;;;;;;;;;;;;;;;;;4914916;29;20329;-90
2021/08/29 16:53:19;;;;;;;;;;;;;;;;;;4978513;28;19926;-88
2021/08/29 16:55:48;;;;;;;;;;;;;;;;;;4943079;28;19926;-90
2021/08/29 16:58:16;;;;;;;;;;;;;;;;;;4948497;28;19936;-89
2021/08/29 17:00:46;;;;;;;;;;;;;;;;;;4953161;28;20373;-88
2021/08/29 17:03:15;;;;;;;;;;;;;;;;;;4949262;28;19926;-88
2021/08/29 17:05:43;;;;;;;;;;;;;;;;;;4961198;28;19934;-88
2021/08/29 17:08:12;;;;;;;;;;;;;;;;;;4960733;28;19926;-90
2021/08/29 17:10:42;;;;;;;;;;;;;;;;;;4960831;28;19929;-91
2021/08/29 17:13:10;;;;;;;;;;;;;;;;;;4942118;28;20425;-86
2021/08/29 17:15:39;;;;;;;;;;;;;;;;;;4957274;28;19955;-87
2021/08/29 17:18:07;;;;;;;;;;;;;;;;;;4957883;28;19929;-89
2021/08/29 17:20:35;;;;;;;;;;;;;;;;;;4940631;28;19926;-89
2021/08/29 17:23:03;;;;;;;;;;;;;;;;;;4945788;28;20380;-91
2021/08/29 17:25:32;;;;;;;;;;;;;;;;;;4948323;28;19926;-90
2021/08/29 17:28:01;;;;;;;;;;;;;;;;;;4963184;28;19934;-90
2021/08/29 17:30:30;;;;;;;;;;;;;;;;;;4960018;28;19926;-89
2021/08/29 17:32:58;;;;;;;;;;;;;;;;;;4948737;28;20279;-90
2021/08/29 17:35:26;;;;;;;;;;;;;;;;;;4946048;28;20302;-92
2021/08/29 17:37:55;;;;;;;;;;;;;;;;;;4947759;28;20386;-91
2021/08/29 17:40:23;;;;;;;;;;;;;;;;;;4945749;28;19930;-90
2021/08/29 17:42:52;;;;;;;;;;;;;;;;;;4964284;28;19937;-89
2021/08/29 17:45:22;;;;;;;;;;;;;;;;;;4943781;28;19933;-91
2021/08/29 17:47:50;;;;;;;;;;;;;;;;;;4944857;28;19926;-91
2021/08/29 17:50:20;;;;;;;;;;;;;;;;;;4970975;28;19932;-91
2021/08/29 17:52:48;;;;;;;;;;;;;;;;;;4948478;28;19926;-89
2021/08/29 17:55:17;;;;;;;;;;;;;;;;;;4951633;28;20386;-92
2021/08/29 17:57:45;;;;;;;;;;;;;;;;;;4965414;28;20010;-89
2021/08/29 18:00:16;;;;;;;;;;;;;;;;;;4959585;28;19926;-91